KHBR

Hobart Regional Airport

Hobart, Oklahoma, USA
METAR KHBR 211253Z AUTO 04021G27KT 10SM CLR M06/M10 A3038 RMK AO2 PK WND 03030/1209 SLP303 T10561100
Observed Flight Rules
Feb-21 @ 12:53 UTC (23 minutes ago) Visual Flight Rules
Wind Visibility Clouds
40° at 21 knots
 Gusting to 27 knots
10 miles
  • Clear skies
Temperatures Readings
Current -6°C / 21°F
Dewpoint -10°C / 14°F
Humidity 74%
Altimeter 30.38" Hg
Pressure 1030.3 hPa
Elevation 473
METAR KHBR 211253Z AUTO 04021G27KT 10SM CLR M06/M10 A3038 RMK AO2 PK WND 03030/1209 SLP303 T10561100
Observed Flight Rules
Feb-21 @ 12:53 UTC
(23 minutes ago)
VFR
Wind Visibility
40° at 21 knots
 Gusting to 27 knots
10 miles
Clouds
  • Clear skies
Temperature Dewpoint
-6°C / 21°F -10°C / 14°F
Humidity Altimeter Pressure
74% 30.38" Hg 1030.3 hPa